createdAt,value
2024-03-04T00:00:34.749Z,10.99
2024-03-04T00:03:02.828Z,11.12
2024-03-04T00:05:30.546Z,11.06
2024-03-04T00:07:58.346Z,11.07
2024-03-04T00:10:26.048Z,11.09
2024-03-04T00:12:53.783Z,11.04
2024-03-04T00:15:21.412Z,11.08
2024-03-04T00:17:51.337Z,11.11
2024-03-04T00:20:19.483Z,11.09
2024-03-04T00:22:48.574Z,11.13
2024-03-04T00:25:17.292Z,11.06
2024-03-04T00:27:45.675Z,11.06
2024-03-04T00:30:14.233Z,11.05
2024-03-04T00:32:42.065Z,11.01
2024-03-04T00:35:12.035Z,11.06
2024-03-04T00:37:39.778Z,11.05
2024-03-04T00:40:09.518Z,11.06
2024-03-04T00:42:39.371Z,11.00
2024-03-04T00:45:07.970Z,10.99
2024-03-04T00:47:35.659Z,10.99
2024-03-04T00:50:03.928Z,11.09
2024-03-04T00:52:33.007Z,11.12
2024-03-04T00:55:02.058Z,11.25
2024-03-04T00:57:29.702Z,11.23
2024-03-04T00:59:58.398Z,11.13
2024-03-04T01:02:26.013Z,11.15
2024-03-04T01:04:53.682Z,11.13
2024-03-04T01:07:21.410Z,11.10
2024-03-04T01:09:50.391Z,11.01
2024-03-04T01:12:18.121Z,10.94
2024-03-04T01:14:45.760Z,11.01
2024-03-04T01:17:18.034Z,10.96
2024-03-04T01:19:47.768Z,11.00
2024-03-04T01:22:17.570Z,10.92
2024-03-04T01:24:45.726Z,10.87
2024-03-04T01:27:15.511Z,10.81
2024-03-04T01:29:43.491Z,10.73
2024-03-04T01:32:11.642Z,10.66
2024-03-04T01:34:41.270Z,10.64
2024-03-04T01:37:09.248Z,10.70
2024-03-04T01:39:37.316Z,10.65
2024-03-04T01:42:05.073Z,10.63
2024-03-04T01:44:36.875Z,10.64
2024-03-04T01:47:06.825Z,10.52
2024-03-04T01:49:37.393Z,10.43
2024-03-04T01:52:07.008Z,10.45
2024-03-04T01:54:37.193Z,10.36
2024-03-04T01:57:05.335Z,10.36
2024-03-04T01:59:35.332Z,10.36
2024-03-04T02:02:07.418Z,10.51
2024-03-04T02:04:35.759Z,10.41
2024-03-04T02:07:04.037Z,10.41
2024-03-04T02:09:32.691Z,10.50
2024-03-04T02:12:00.658Z,10.49
2024-03-04T02:14:28.449Z,10.46
2024-03-04T02:16:57.415Z,10.48
2024-03-04T02:19:25.232Z,10.51
2024-03-04T02:21:57.235Z,10.49
2024-03-04T02:24:26.269Z,10.58
2024-03-04T02:26:54.369Z,10.50
2024-03-04T02:29:21.967Z,10.04
2024-03-04T02:31:50.193Z,10.43
2024-03-04T02:34:18.652Z,10.48
2024-03-04T02:36:46.450Z,10.57
2024-03-04T02:39:14.326Z,10.48
2024-03-04T02:41:43.270Z,10.51
2024-03-04T02:44:10.885Z,10.55
2024-03-04T02:46:41.248Z,10.56
2024-03-04T02:49:08.988Z,10.51
2024-03-04T02:51:36.709Z,10.53
2024-03-04T02:54:04.937Z,10.57
2024-03-04T02:56:32.541Z,10.58
2024-03-04T02:59:01.740Z,10.60
2024-03-04T03:01:29.567Z,10.52
2024-03-04T03:03:57.344Z,10.56
2024-03-04T03:06:26.528Z,10.54
2024-03-04T03:08:54.197Z,10.50
2024-03-04T03:11:21.840Z,10.55
2024-03-04T03:13:49.495Z,10.53
2024-03-04T03:16:21.907Z,10.52
2024-03-04T03:18:50.312Z,10.12
2024-03-04T03:21:18.609Z,10.44
2024-03-04T03:23:47.541Z,10.47
2024-03-04T03:26:15.148Z,10.51
2024-03-04T03:28:42.962Z,10.41
2024-03-04T03:31:11.439Z,10.43
2024-03-04T03:33:40.528Z,10.47
2024-03-04T03:36:08.690Z,10.45
2024-03-04T03:38:36.514Z,10.43
2024-03-04T03:41:05.191Z,10.45
2024-03-04T03:43:32.961Z,10.44
2024-03-04T03:46:02.470Z,10.42
2024-03-04T03:48:30.974Z,10.37
2024-03-04T03:51:00.219Z,10.35
2024-03-04T03:53:27.863Z,10.34
2024-03-04T03:55:55.495Z,10.33
2024-03-04T03:58:23.245Z,10.34
2024-03-04T04:00:50.990Z,10.33
2024-03-04T04:03:18.887Z,10.34
2024-03-04T04:05:46.797Z,10.33
2024-03-04T04:08:15.870Z,10.36
2024-03-04T04:10:43.696Z,10.35
2024-03-04T04:13:11.797Z,10.36
2024-03-04T04:15:40.030Z,10.28
2024-03-04T04:18:07.835Z,10.33
2024-03-04T04:20:35.540Z,10.30
2024-03-04T04:23:03.236Z,10.24
2024-03-04T04:25:32.898Z,10.24
2024-03-04T04:28:01.381Z,10.34
2024-03-04T04:30:29.061Z,10.24
2024-03-04T04:32:56.759Z,10.24
2024-03-04T04:35:24.406Z,10.21
2024-03-04T04:37:52.058Z,10.21
2024-03-04T04:40:20.492Z,10.24
2024-03-04T04:42:49.575Z,10.20
2024-03-04T04:45:18.629Z,10.21
2024-03-04T04:47:46.386Z,10.16
2024-03-04T04:50:14.603Z,10.22
2024-03-04T04:52:42.391Z,10.22
2024-03-04T04:55:11.993Z,10.20
2024-03-04T04:57:40.520Z,10.25
2024-03-04T05:00:13.493Z,10.21
2024-03-04T05:02:42.135Z,10.22
2024-03-04T05:05:10.356Z,10.20
2024-03-04T05:07:39.359Z,10.11
2024-03-04T05:10:08.350Z,10.07
2024-03-04T05:12:36.005Z,10.05
2024-03-04T05:15:05.293Z,10.11
2024-03-04T05:17:34.287Z,10.03
2024-03-04T05:20:02.043Z,9.98
2024-03-04T05:22:29.730Z,9.99
2024-03-04T05:24:57.760Z,9.81
2024-03-04T05:27:28.042Z,9.99
2024-03-04T05:29:57.272Z,10.03
2024-03-04T05:32:25.240Z,10.02
2024-03-04T05:34:54.192Z,10.04
2024-03-04T05:37:22.789Z,10.02
2024-03-04T05:39:52.140Z,10.08
2024-03-04T05:42:19.822Z,10.11
2024-03-04T05:44:47.584Z,10.10
2024-03-04T05:47:15.881Z,10.09
2024-03-04T05:49:43.558Z,10.03
2024-03-04T05:52:12.763Z,9.96
2024-03-04T05:54:40.484Z,9.95
2024-03-04T05:57:08.205Z,9.95
2024-03-04T05:59:35.844Z,9.90
2024-03-04T06:02:03.642Z,9.96
2024-03-04T06:04:32.760Z,9.95
2024-03-04T06:07:02.861Z,9.93
2024-03-04T06:09:32.015Z,9.90
2024-03-04T06:12:01.512Z,9.96
2024-03-04T06:14:29.581Z,10.05
2024-03-04T06:16:57.306Z,9.97
2024-03-04T06:19:25.096Z,9.96
2024-03-04T06:22:04.741Z,10.02
2024-03-04T06:24:37.285Z,10.01
2024-03-04T06:27:05.385Z,10.02
2024-03-04T06:29:34.865Z,10.06
2024-03-04T06:32:02.611Z,10.06
2024-03-04T06:34:31.310Z,10.18
2024-03-04T06:36:59.322Z,9.77
2024-03-04T06:39:28.652Z,10.39
2024-03-04T06:41:57.770Z,10.28
2024-03-04T06:44:25.420Z,9.88
2024-03-04T06:46:53.108Z,10.38
2024-03-04T06:49:20.954Z,10.40
2024-03-04T06:51:48.700Z,10.41
2024-03-04T06:54:16.720Z,10.43
2024-03-04T06:56:44.536Z,10.49
2024-03-04T06:59:13.462Z,10.45
2024-03-04T07:01:41.221Z,10.56
2024-03-04T07:04:09.067Z,10.54
2024-03-04T07:06:36.768Z,10.53
2024-03-04T07:09:05.150Z,10.51
2024-03-04T07:11:32.828Z,10.49
2024-03-04T07:14:00.419Z,10.58
2024-03-04T07:16:29.446Z,10.70
2024-03-04T07:18:57.115Z,10.74
2024-03-04T07:21:24.930Z,10.69
2024-03-04T07:23:52.739Z,10.67
2024-03-04T07:26:21.631Z,10.61
2024-03-04T07:28:49.502Z,10.63
2024-03-04T07:31:17.538Z,10.66
2024-03-04T07:33:47.705Z,10.66
2024-03-04T07:36:17.410Z,10.65
2024-03-04T07:38:45.432Z,10.66
2024-03-04T07:41:13.072Z,10.68
2024-03-04T07:43:42.164Z,10.62
2024-03-04T07:46:10.335Z,10.51
2024-03-04T07:48:38.002Z,10.44
2024-03-04T07:51:07.566Z,10.49
2024-03-04T07:53:35.224Z,10.50
2024-03-04T07:56:02.970Z,10.49
2024-03-04T07:58:30.686Z,10.52
2024-03-04T08:01:01.069Z,10.53
2024-03-04T08:03:28.960Z,10.60
2024-03-04T08:05:56.803Z,10.62
2024-03-04T08:08:25.788Z,10.49
2024-03-04T08:10:53.743Z,10.32
2024-03-04T08:13:21.578Z,10.65
2024-03-04T08:15:50.049Z,10.68
2024-03-04T08:18:17.867Z,10.67
2024-03-04T08:20:45.768Z,10.67
2024-03-04T08:23:13.452Z,10.20
2024-03-04T08:25:42.526Z,10.65
2024-03-04T08:28:19.584Z,10.26
2024-03-04T08:30:52.045Z,10.66
2024-03-04T08:33:19.705Z,10.68
2024-03-04T08:35:47.361Z,10.61
2024-03-04T08:38:15.104Z,10.59
2024-03-04T08:40:44.217Z,10.67
2024-03-04T08:43:12.033Z,10.77
2024-03-04T08:45:39.699Z,10.79
2024-03-04T08:48:09.332Z,10.86
2024-03-04T08:50:37.170Z,10.77
2024-03-04T08:53:05.242Z,10.83
2024-03-04T08:55:32.874Z,10.87
2024-03-04T08:58:01.983Z,10.88
2024-03-04T09:00:29.898Z,10.91
2024-03-04T09:02:57.999Z,11.01
2024-03-04T09:05:25.635Z,11.00
2024-03-04T09:07:53.315Z,11.01
2024-03-04T09:10:20.989Z,11.01
2024-03-04T09:12:48.700Z,11.18
2024-03-04T09:15:18.691Z,11.04
2024-03-04T09:17:46.467Z,11.07
2024-03-04T09:20:14.279Z,11.01
2024-03-04T09:22:42.258Z,11.11
2024-03-04T09:25:09.342Z,11.18
2024-03-04T09:27:37.625Z,11.18
2024-03-04T09:30:07.961Z,11.24
2024-03-04T09:32:37.181Z,11.26
2024-03-04T09:35:05.892Z,11.26
2024-03-04T09:37:33.637Z,11.34
2024-03-04T09:40:01.848Z,11.32
2024-03-04T09:42:32.048Z,11.43
2024-03-04T09:45:00.125Z,11.04
2024-03-04T09:47:28.787Z,11.44
2024-03-04T09:49:58.361Z,11.48
2024-03-04T09:52:30.625Z,11.55
2024-03-04T09:55:02.047Z,11.55
2024-03-04T09:57:30.533Z,11.50
2024-03-04T09:59:59.454Z,11.56
2024-03-04T10:02:27.314Z,11.53
2024-03-04T10:04:55.607Z,11.54
2024-03-04T10:07:25.193Z,11.56
2024-03-04T10:09:55.429Z,11.64
2024-03-04T10:12:23.594Z,11.88
2024-03-04T10:15:07.109Z,11.90
2024-03-04T10:17:34.945Z,11.90
2024-03-04T10:20:04.467Z,11.61
2024-03-04T10:22:37.121Z,11.80
2024-03-04T10:25:06.251Z,11.59
2024-03-04T10:27:34.753Z,11.89
2024-03-04T10:30:11.137Z,11.24
2024-03-04T10:32:39.493Z,11.85
2024-03-04T10:35:08.363Z,11.62
2024-03-04T10:37:37.447Z,11.80
2024-03-04T10:40:06.479Z,11.77
2024-03-04T10:42:34.184Z,11.76
2024-03-04T10:45:02.113Z,11.77
2024-03-04T10:47:30.147Z,11.74
2024-03-04T10:49:57.809Z,11.68
2024-03-04T10:52:25.457Z,11.69
2024-03-04T10:54:54.987Z,11.78
2024-03-04T10:57:29.745Z,11.72
2024-03-04T10:59:58.822Z,11.76
2024-03-04T11:02:34.220Z,11.78
2024-03-04T11:05:03.376Z,11.76
2024-03-04T11:07:32.972Z,11.75
2024-03-04T11:10:07.226Z,11.77
2024-03-04T11:12:35.231Z,11.77
2024-03-04T11:15:08.399Z,11.88
2024-03-04T11:17:38.266Z,11.73
2024-03-04T11:20:09.100Z,11.99
2024-03-04T11:22:38.652Z,12.02
2024-03-04T11:25:08.937Z,12.07
2024-03-04T11:27:37.254Z,12.16
2024-03-04T11:30:06.992Z,11.95
2024-03-04T11:32:34.830Z,12.21
2024-03-04T11:35:07.289Z,12.09
2024-03-04T11:37:39.301Z,11.94
2024-03-04T11:40:10.550Z,12.02
2024-03-04T11:42:39.841Z,11.81
2024-03-04T11:45:08.900Z,11.50
2024-03-04T11:47:36.689Z,12.16
2024-03-04T11:50:07.113Z,12.15
2024-03-04T11:52:39.479Z,12.12
2024-03-04T11:55:10.676Z,12.14
2024-03-04T11:57:38.455Z,12.27
2024-03-04T12:00:11.062Z,12.28
2024-03-04T12:02:39.098Z,12.31
2024-03-04T12:05:07.750Z,12.41
2024-03-04T12:07:35.519Z,12.51
2024-03-04T12:10:12.987Z,12.43
2024-03-04T12:12:46.322Z,12.55
2024-03-04T12:15:14.001Z,12.62
2024-03-04T12:17:42.023Z,12.64
2024-03-04T12:20:11.363Z,12.72
2024-03-04T12:22:39.767Z,12.68
2024-03-04T12:25:09.777Z,12.69
2024-03-04T12:27:39.160Z,12.78
2024-03-04T12:30:15.569Z,12.80
2024-03-04T12:32:43.771Z,12.80
2024-03-04T12:35:18.694Z,12.86
2024-03-04T12:37:48.572Z,12.80
2024-03-04T12:40:16.996Z,12.83
2024-03-04T12:42:44.653Z,12.86
2024-03-04T12:45:13.942Z,12.83
2024-03-04T12:47:42.121Z,12.78
2024-03-04T12:50:11.363Z,12.84
2024-03-04T12:52:40.925Z,12.82
2024-03-04T12:55:14.580Z,12.75
2024-03-04T12:57:42.236Z,12.71
2024-03-04T13:00:13.969Z,12.62
2024-03-04T13:02:43.950Z,12.56
2024-03-04T13:05:11.994Z,12.57
2024-03-04T13:07:40.756Z,12.50
2024-03-04T13:10:10.759Z,12.43
2024-03-04T13:12:39.558Z,12.29
2024-03-04T13:15:09.071Z,12.31
2024-03-04T13:17:36.970Z,12.26
2024-03-04T13:20:10.243Z,12.20
2024-03-04T13:22:38.508Z,12.16
2024-03-04T13:25:07.838Z,12.17
2024-03-04T13:27:35.917Z,12.13
2024-03-04T13:30:04.476Z,12.14
2024-03-04T13:32:32.288Z,12.11
2024-03-04T13:35:00.002Z,12.06
2024-03-04T13:37:29.357Z,11.98
2024-03-04T13:39:57.647Z,11.78
2024-03-04T13:42:25.545Z,11.98
2024-03-04T13:44:53.210Z,11.96
2024-03-04T13:47:20.850Z,11.99
2024-03-04T13:49:49.684Z,11.99
2024-03-04T13:52:17.473Z,11.91
2024-03-04T13:54:46.573Z,11.85
2024-03-04T13:57:14.268Z,11.90
2024-03-04T13:59:41.915Z,11.94
2024-03-04T14:02:09.635Z,11.96
2024-03-04T14:04:37.406Z,11.95
2024-03-04T14:07:05.905Z,11.99
2024-03-04T14:09:33.774Z,11.87
2024-03-04T14:12:02.742Z,11.81
2024-03-04T14:14:30.353Z,11.77
2024-03-04T14:16:58.016Z,11.80
2024-03-04T14:19:25.701Z,11.84
2024-03-04T14:21:53.348Z,11.92
2024-03-04T14:24:21.449Z,11.85
2024-03-04T14:26:49.119Z,11.95
2024-03-04T14:29:18.157Z,11.99
2024-03-04T14:31:45.839Z,12.03
2024-03-04T14:34:13.705Z,11.98
2024-03-04T14:36:41.369Z,12.00
2024-03-04T14:39:12.209Z,11.58
2024-03-04T14:41:40.276Z,12.03
2024-03-04T14:44:08.296Z,12.12
2024-03-04T14:46:37.378Z,12.12
2024-03-04T14:49:05.165Z,12.15
2024-03-04T14:51:34.085Z,12.18
2024-03-04T14:54:01.730Z,12.11
2024-03-04T14:56:31.209Z,12.21
2024-03-04T14:58:59.040Z,12.14
2024-03-04T15:01:26.717Z,12.06
2024-03-04T15:03:55.671Z,12.03
2024-03-04T15:06:23.269Z,12.06
2024-03-04T15:08:51.795Z,12.09
2024-03-04T15:11:19.755Z,12.15
2024-03-04T15:13:47.714Z,12.12
2024-03-04T15:16:17.153Z,12.03
2024-03-04T15:18:44.852Z,11.98
2024-03-04T15:21:13.939Z,12.00
2024-03-04T15:23:41.562Z,12.08
2024-03-04T15:26:09.165Z,12.06
2024-03-04T15:28:36.891Z,12.03
2024-03-04T15:31:04.801Z,12.01
2024-03-04T15:33:32.653Z,11.96
2024-03-04T15:36:09.877Z,11.96
2024-03-04T15:38:46.636Z,12.02
2024-03-04T15:41:14.297Z,12.00
2024-03-04T15:43:42.130Z,11.99
2024-03-04T15:46:09.911Z,11.96
2024-03-04T15:48:37.630Z,11.86
2024-03-04T15:51:07.009Z,11.86
2024-03-04T15:53:35.432Z,11.90
2024-03-04T15:56:05.428Z,11.93
2024-03-04T15:58:33.146Z,11.99
2024-03-04T16:01:02.493Z,12.02
2024-03-04T16:03:33.248Z,11.99
2024-03-04T16:06:03.448Z,12.03
2024-03-04T16:08:31.171Z,12.00
2024-03-04T16:10:59.047Z,12.00
2024-03-04T16:13:28.570Z,12.03
2024-03-04T16:15:59.202Z,12.03
2024-03-04T16:18:27.303Z,11.98
2024-03-04T16:20:54.899Z,12.05
2024-03-04T16:23:22.596Z,12.03
2024-03-04T16:25:50.273Z,11.90
2024-03-04T16:28:18.725Z,11.93
2024-03-04T16:30:49.112Z,11.91
2024-03-04T16:33:16.866Z,11.80
2024-03-04T16:35:44.580Z,11.82
2024-03-04T16:38:12.832Z,11.71
2024-03-04T16:40:41.689Z,11.80
2024-03-04T16:43:09.477Z,11.83
2024-03-04T16:45:37.812Z,11.80
2024-03-04T16:48:07.478Z,11.77
2024-03-04T16:50:35.141Z,11.73
2024-03-04T16:53:02.927Z,11.69
2024-03-04T16:55:34.686Z,11.69
2024-03-04T16:58:04.395Z,11.60
2024-03-04T17:00:32.095Z,11.59
2024-03-04T17:02:59.854Z,11.59
2024-03-04T17:05:28.861Z,11.57
2024-03-04T17:07:56.630Z,11.59
2024-03-04T17:10:24.290Z,11.57
2024-03-04T17:12:53.558Z,11.58
2024-03-04T17:15:22.759Z,11.58
2024-03-04T17:17:52.604Z,11.61
2024-03-04T17:20:22.464Z,11.61
2024-03-04T17:22:51.522Z,11.56
2024-03-04T17:25:19.344Z,11.60
2024-03-04T17:27:47.049Z,11.46
2024-03-04T17:30:15.008Z,11.42
2024-03-04T17:32:42.717Z,11.31
2024-03-04T17:35:10.514Z,11.23
2024-03-04T17:37:38.202Z,11.26
2024-03-04T17:40:09.579Z,11.26
2024-03-04T17:42:37.290Z,11.21
2024-03-04T17:45:05.764Z,11.00
2024-03-04T17:47:33.444Z,11.20
2024-03-04T17:50:01.116Z,11.23
2024-03-04T17:52:28.865Z,11.26
2024-03-04T17:54:56.596Z,11.31
2024-03-04T17:57:25.964Z,11.27
2024-03-04T17:59:53.698Z,11.27
2024-03-04T18:02:22.693Z,11.28
2024-03-04T18:04:51.019Z,11.28
2024-03-04T18:07:18.798Z,11.23
2024-03-04T18:09:47.528Z,11.18
2024-03-04T18:12:15.207Z,11.11
2024-03-04T18:14:44.896Z,11.20
2024-03-04T18:17:12.721Z,11.15
2024-03-04T18:19:40.391Z,11.26
2024-03-04T18:22:09.076Z,11.19
2024-03-04T18:24:37.625Z,11.11
2024-03-04T18:27:05.650Z,11.22
2024-03-04T18:29:33.838Z,11.26
2024-03-04T18:32:02.850Z,11.27
2024-03-04T18:34:30.761Z,11.28
2024-03-04T18:36:59.569Z,11.22
2024-03-04T18:39:28.475Z,11.20
2024-03-04T18:41:57.934Z,11.21
2024-03-04T18:44:25.610Z,11.22
2024-03-04T18:46:53.331Z,11.15
2024-03-04T18:49:22.523Z,11.14
2024-03-04T18:51:50.204Z,11.10
2024-03-04T18:54:18.710Z,11.12
2024-03-04T18:56:47.314Z,11.10
2024-03-04T18:59:15.018Z,11.05
2024-03-04T19:01:42.756Z,11.04
2024-03-04T19:04:10.456Z,11.09
2024-03-04T19:06:39.567Z,11.08
2024-03-04T19:09:07.267Z,11.11
2024-03-04T19:11:35.176Z,11.17
2024-03-04T19:14:02.922Z,11.19
2024-03-04T19:16:30.704Z,11.17
2024-03-04T19:18:58.418Z,11.16
2024-03-04T19:21:27.397Z,11.16
2024-03-04T19:23:56.596Z,11.21
2024-03-04T19:26:24.226Z,11.18
2024-03-04T19:28:52.852Z,11.22
2024-03-04T19:31:21.505Z,11.22
2024-03-04T19:33:50.946Z,11.21
2024-03-04T19:36:18.694Z,11.14
2024-03-04T19:38:46.439Z,11.14
2024-03-04T19:41:20.071Z,11.15
2024-03-04T19:43:47.800Z,11.10
2024-03-04T19:46:22.433Z,11.11
2024-03-04T19:48:51.743Z,11.12
2024-03-04T19:51:22.859Z,11.08
2024-03-04T19:53:50.732Z,11.09
2024-03-04T19:56:19.868Z,11.12
2024-03-04T19:58:48.043Z,11.15
2024-03-04T20:01:16.520Z,11.13
2024-03-04T20:03:45.009Z,11.18
2024-03-04T20:06:13.171Z,11.21
2024-03-04T20:08:41.972Z,11.14
2024-03-04T20:11:11.941Z,11.17
2024-03-04T20:13:42.047Z,11.12
2024-03-04T20:16:10.492Z,11.04
2024-03-04T20:18:38.295Z,11.06
2024-03-04T20:21:07.875Z,11.04
2024-03-04T20:23:37.012Z,11.03
2024-03-04T20:26:05.168Z,10.95
2024-03-04T20:28:34.928Z,11.06
2024-03-04T20:31:04.733Z,11.05
2024-03-04T20:33:33.449Z,11.06
2024-03-04T20:36:02.254Z,11.08
2024-03-04T20:38:29.895Z,11.09
2024-03-04T20:40:58.060Z,10.93
2024-03-04T20:43:25.928Z,11.00
2024-03-04T20:45:54.223Z,10.90
2024-03-04T20:48:25.705Z,10.97
2024-03-04T20:50:54.310Z,11.05
2024-03-04T20:53:22.187Z,11.02
2024-03-04T20:55:50.133Z,11.04
2024-03-04T20:58:17.889Z,10.98
2024-03-04T21:00:46.098Z,11.03
2024-03-04T21:03:13.900Z,11.04
2024-03-04T21:05:42.853Z,11.09
2024-03-04T21:08:10.782Z,11.04
2024-03-04T21:10:38.463Z,11.09
2024-03-04T21:13:06.237Z,10.94
2024-03-04T21:15:34.181Z,10.93
2024-03-04T21:18:01.931Z,10.65
2024-03-04T21:20:29.709Z,10.76
2024-03-04T21:23:03.740Z,10.80
2024-03-04T21:25:31.720Z,10.77
2024-03-04T21:27:59.420Z,10.82
2024-03-04T21:30:28.955Z,10.85
2024-03-04T21:32:56.594Z,10.86
2024-03-04T21:35:24.376Z,10.86
2024-03-04T21:37:52.085Z,10.95
2024-03-04T21:40:21.252Z,10.96
2024-03-04T21:42:48.974Z,11.00
2024-03-04T21:45:16.630Z,10.97
2024-03-04T21:47:45.438Z,10.97
2024-03-04T21:50:13.165Z,10.81
2024-03-04T21:52:42.013Z,10.80
2024-03-04T21:55:12.176Z,10.84
2024-03-04T21:57:41.575Z,10.75
2024-03-04T22:00:15.733Z,10.84
2024-03-04T22:02:44.354Z,10.90
2024-03-04T22:05:13.574Z,10.88
2024-03-04T22:07:42.150Z,10.83
2024-03-04T22:10:12.059Z,10.81
2024-03-04T22:12:41.404Z,10.82
2024-03-04T22:15:11.042Z,10.85
2024-03-04T22:17:39.022Z,10.87
2024-03-04T22:20:10.995Z,10.85
2024-03-04T22:22:39.257Z,10.73
2024-03-04T22:25:07.994Z,10.82
2024-03-04T22:27:35.909Z,10.23
2024-03-04T22:30:05.607Z,10.71
2024-03-04T22:32:33.284Z,10.75
2024-03-04T22:35:01.934Z,10.72
2024-03-04T22:37:31.616Z,10.67
2024-03-04T22:39:59.274Z,10.53
2024-03-04T22:42:26.889Z,10.28
2024-03-04T22:44:54.660Z,10.43
2024-03-04T22:47:24.699Z,10.43
2024-03-04T22:49:52.582Z,10.43
2024-03-04T22:52:20.433Z,10.32
2024-03-04T22:54:49.080Z,10.40
2024-03-04T22:57:16.836Z,10.41
2024-03-04T22:59:45.132Z,10.45
2024-03-04T23:02:13.035Z,10.41
2024-03-04T23:04:42.216Z,10.40
2024-03-04T23:07:10.015Z,10.28
2024-03-04T23:09:39.279Z,10.35
2024-03-04T23:12:10.045Z,10.42
2024-03-04T23:14:38.407Z,10.39
2024-03-04T23:17:07.251Z,10.39
2024-03-04T23:19:35.266Z,10.41
2024-03-04T23:22:04.347Z,10.46
2024-03-04T23:24:31.967Z,10.29
2024-03-04T23:26:59.614Z,10.40
2024-03-04T23:29:27.288Z,10.37
2024-03-04T23:31:55.441Z,10.46
2024-03-04T23:34:23.165Z,10.54
2024-03-04T23:36:51.496Z,10.44
2024-03-04T23:39:24.693Z,10.50
2024-03-04T23:41:52.647Z,10.30
2024-03-04T23:44:20.762Z,10.15
2024-03-04T23:46:48.544Z,10.16
2024-03-04T23:49:16.306Z,10.22
2024-03-04T23:51:43.889Z,10.27
2024-03-04T23:54:11.679Z,10.35
2024-03-04T23:56:42.646Z,10.34
2024-03-04T23:59:10.398Z,10.42
